Time;durP1;ratioP1;P1;durP2;ratioP2;P2;SDS_P1;SDS_P2;PMS_P1;PMS_P2;Temp;Humidity;BMP_temperature;BMP_pressure;BME280_temperature;BME280_humidity;BME280_pressure;Samples;Min_cycle;Max_cycle;Signal;HPM_P1;HPM_P2
2023/08/09 00:00:55;;;;;;;6.88;3.45;;;24.10;99.90;;;;;;5080319;28;20394;-70
2023/08/09 00:03:21;;;;;;;7.97;3.60;;;24.00;99.90;;;;;;5097971;28;20433;-72
2023/08/09 00:05:47;;;;;;;10.60;4.10;;;24.00;99.90;;;;;;5085910;28;20408;-72
2023/08/09 00:08:14;;;;;;;8.50;3.93;;;24.00;99.90;;;;;;5091495;27;20417;-70
2023/08/09 00:10:40;;;;;;;11.45;3.80;;;24.00;99.90;;;;;;5093412;27;20458;-70
2023/08/09 00:13:07;;;;;;;8.27;3.72;;;23.90;99.90;;;;;;5097101;27;20433;-70
2023/08/09 00:15:34;;;;;;;7.43;3.50;;;24.00;99.90;;;;;;5099933;27;20957;-70
2023/08/09 00:18:02;;;;;;;8.75;3.83;;;24.00;99.90;;;;;;5127789;27;20440;-70
2023/08/09 00:20:28;;;;;;;7.72;3.72;;;24.00;99.90;;;;;;5099321;27;20465;-70
2023/08/09 00:22:55;;;;;;;7.57;3.67;;;24.00;99.90;;;;;;5097558;27;20464;-70
2023/08/09 00:25:21;;;;;;;8.05;3.80;;;24.00;99.90;;;;;;5092805;28;20411;-70
2023/08/09 00:27:47;;;;;;;7.97;3.58;;;23.90;99.90;;;;;;5094252;28;20480;-70
2023/08/09 00:30:16;;;;;;;9.50;3.75;;;24.00;99.90;;;;;;5079569;28;21148;-70
2023/08/09 00:32:42;;;;;;;6.97;3.35;;;24.00;99.90;;;;;;5098268;28;20404;-72
2023/08/09 00:35:10;;;;;;;8.20;3.88;;;23.90;99.90;;;;;;5098507;28;20637;-72
2023/08/09 00:37:38;;;;;;;8.10;3.67;;;23.90;99.90;;;;;;5097205;28;20410;-71
2023/08/09 00:40:11;;;;;;;7.80;3.55;;;23.90;99.90;;;;;;5107971;27;20476;-70
2023/08/09 00:42:40;;;;;;;7.80;3.53;;;23.90;99.90;;;;;;5082253;28;20495;-69
2023/08/09 00:45:09;;;;;;;8.07;3.92;;;23.90;99.90;;;;;;5096505;28;20414;-70
2023/08/09 00:47:36;;;;;;;9.63;3.63;;;23.90;99.90;;;;;;5095804;28;20489;-70
2023/08/09 00:50:04;;;;;;;10.25;3.63;;;23.90;99.90;;;;;;5096135;28;20421;-69
2023/08/09 00:52:30;;;;;;;7.97;3.80;;;23.90;99.90;;;;;;5097312;28;20489;-70
2023/08/09 00:54:58;;;;;;;9.40;3.63;;;23.90;99.90;;;;;;5100123;27;20415;-70
2023/08/09 00:57:24;;;;;;;10.95;3.70;;;23.90;99.90;;;;;;5097038;28;20440;-70
2023/08/09 00:59:50;;;;;;;8.57;3.65;;;23.90;99.90;;;;;;5100469;27;20559;-71
2023/08/09 01:02:16;;;;;;;7.57;3.85;;;23.80;99.90;;;;;;5116945;27;20509;-72
2023/08/09 01:04:43;;;;;;;7.53;3.38;;;23.80;99.90;;;;;;5097048;28;20393;-70
2023/08/09 01:07:37;;;;;;;8.88;3.58;;;23.80;99.90;;;;;;5093906;28;20474;-70
2023/08/09 01:10:22;;;;;;;7.97;3.53;;;23.90;99.90;;;;;;5078279;28;20418;-69
2023/08/09 01:12:58;;;;;;;8.93;3.55;;;23.80;99.90;;;;;;5098305;28;20896;-69
2023/08/09 01:15:25;;;;;;;7.60;3.60;;;23.90;99.90;;;;;;5095118;28;20465;-70
2023/08/09 01:17:55;;;;;;;9.02;3.78;;;23.80;99.90;;;;;;5095157;28;20412;-70
2023/08/09 01:20:23;;;;;;;9.20;3.72;;;23.80;99.90;;;;;;5085862;28;20412;-71
2023/08/09 01:23:34;;;;;;;7.88;3.50;;;23.80;99.90;;;;;;5072391;28;20409;-69
2023/08/09 01:26:01;;;;;;;9.55;3.83;;;23.80;99.90;;;;;;5038465;28;20417;-69
2023/08/09 01:28:27;;;;;;;9.60;3.63;;;23.80;99.90;;;;;;5091845;27;20414;-70
2023/08/09 01:30:53;;;;;;;9.35;3.80;;;23.80;99.90;;;;;;5094253;28;20396;-71
2023/08/09 01:33:20;;;;;;;8.45;3.50;;;23.80;99.90;;;;;;5095895;27;20415;-70
2023/08/09 01:36:21;;;;;;;8.77;3.80;;;23.80;99.90;;;;;;5083808;28;20412;-70
2023/08/09 01:39:06;;;;;;;10.82;3.50;;;23.70;99.90;;;;;;5102232;27;20396;-70
2023/08/09 01:41:34;;;;;;;10.95;4.00;;;23.70;99.90;;;;;;5100745;28;20407;-69
2023/08/09 01:44:02;;;;;;;7.70;3.97;;;23.70;99.90;;;;;;5101625;28;20897;-70
2023/08/09 01:46:29;;;;;;;11.23;3.33;;;23.70;99.90;;;;;;5083981;28;20503;-70
2023/08/09 01:49:13;;;;;;;6.53;3.28;;;23.70;99.90;;;;;;5071413;28;20920;-70
2023/08/09 01:51:40;;;;;;;10.05;3.80;;;23.60;99.90;;;;;;5119230;27;20408;-69
2023/08/09 01:54:08;;;;;;;7.20;3.25;;;23.60;99.90;;;;;;5096046;28;20408;-69
2023/08/09 01:56:35;;;;;;;7.83;3.50;;;23.60;99.90;;;;;;5094323;28;20420;-69
2023/08/09 01:59:05;;;;;;;9.25;3.67;;;23.60;99.90;;;;;;5083886;28;20571;-71
2023/08/09 02:01:32;;;;;;;7.68;3.50;;;23.50;99.90;;;;;;5095148;28;20510;-71
2023/08/09 02:03:58;;;;;;;8.55;3.70;;;23.40;99.90;;;;;;5073418;28;20413;-72
2023/08/09 02:06:24;;;;;;;9.18;3.67;;;23.40;99.90;;;;;;5096211;28;20414;-70
2023/08/09 02:08:50;;;;;;;7.68;3.60;;;23.50;99.90;;;;;;5096156;28;20509;-70
2023/08/09 02:11:17;;;;;;;6.03;3.42;;;23.50;99.90;;;;;;5096269;28;20902;-70
2023/08/09 02:13:44;;;;;;;7.53;3.47;;;23.50;99.90;;;;;;5094457;28;21228;-70
2023/08/09 02:16:13;;;;;;;8.40;3.92;;;23.50;99.90;;;;;;5095610;28;20416;-70
2023/08/09 02:18:39;;;;;;;11.48;3.75;;;23.40;99.90;;;;;;5096326;28;20415;-70
2023/08/09 02:21:05;;;;;;;9.25;3.63;;;23.30;99.90;;;;;;5083459;28;20398;-70
2023/08/09 02:23:32;;;;;;;12.60;4.18;;;23.30;99.90;;;;;;5115915;27;20893;-72
2023/08/09 02:25:59;;;;;;;8.57;4.00;;;23.30;99.90;;;;;;5097907;27;20469;-72
2023/08/09 02:28:25;;;;;;;10.65;3.45;;;23.30;99.90;;;;;;5083771;28;20409;-70
2023/08/09 02:30:53;;;;;;;8.00;3.60;;;23.20;99.90;;;;;;5082726;28;20533;-70
2023/08/09 02:33:19;;;;;;;10.70;3.67;;;23.20;99.90;;;;;;5098180;27;20416;-70
2023/08/09 02:36:04;;;;;;;8.00;3.65;;;23.20;99.90;;;;;;5098362;28;20407;-70
2023/08/09 02:38:34;;;;;;;8.50;3.67;;;23.20;99.90;;;;;;5103002;27;20420;-72
2023/08/09 02:41:00;;;;;;;8.48;3.53;;;23.20;99.90;;;;;;5119631;27;20910;-72
2023/08/09 02:43:27;;;;;;;9.00;3.55;;;23.10;99.90;;;;;;5084087;28;20998;-70
2023/08/09 02:45:54;;;;;;;8.57;3.87;;;23.20;99.90;;;;;;5119269;27;21036;-70
2023/08/09 02:48:20;;;;;;;10.73;3.70;;;23.20;99.90;;;;;;5099311;27;20855;-70
2023/08/09 02:50:47;;;;;;;8.98;3.80;;;23.30;99.90;;;;;;5100074;27;20412;-72
2023/08/09 02:53:15;;;;;;;10.63;4.00;;;23.30;99.90;;;;;;5103258;27;20396;-72
2023/08/09 02:55:42;;;;;;;10.60;4.10;;;23.30;99.90;;;;;;5085825;28;20877;-70
2023/08/09 02:58:09;;;;;;;10.68;3.90;;;23.30;99.90;;;;;;5097443;27;20407;-72
2023/08/09 03:00:36;;;;;;;9.70;3.88;;;23.40;99.90;;;;;;5081954;27;20514;-72
2023/08/09 03:03:04;;;;;;;10.57;3.53;;;23.40;99.90;;;;;;5083785;28;20425;-72
2023/08/09 03:05:31;;;;;;;6.80;3.38;;;23.30;99.90;;;;;;5102252;27;20521;-72
2023/08/09 03:07:58;;;;;;;7.53;3.37;;;23.40;99.90;;;;;;5102225;27;20425;-72
2023/08/09 03:10:25;;;;;;;8.90;3.72;;;23.30;99.90;;;;;;5097374;28;20421;-72
2023/08/09 03:12:51;;;;;;;10.57;3.40;;;23.20;99.90;;;;;;5105201;27;20403;-72
2023/08/09 03:15:17;;;;;;;12.05;3.95;;;23.30;99.90;;;;;;5106181;27;20410;-72
2023/08/09 03:17:48;;;;;;;10.55;4.03;;;23.30;99.90;;;;;;5104500;27;20505;-72
2023/08/09 03:20:15;;;;;;;9.52;3.72;;;23.40;99.90;;;;;;5086401;28;20446;-72
2023/08/09 03:22:48;;;;;;;10.50;3.83;;;23.30;99.90;;;;;;5106025;27;20408;-72
2023/08/09 03:25:15;;;;;;;10.52;3.53;;;23.20;99.90;;;;;;5082080;28;20580;-72
2023/08/09 03:27:45;;;;;;;9.05;3.65;;;23.30;99.90;;;;;;5101697;28;20417;-72
2023/08/09 03:30:13;;;;;;;8.30;3.50;;;23.30;99.90;;;;;;5088710;28;20390;-72
2023/08/09 03:32:39;;;;;;;9.45;3.55;;;23.30;99.90;;;;;;5107195;27;20443;-72
2023/08/09 03:35:10;;;;;;;12.23;3.90;;;23.40;99.90;;;;;;5110100;27;20922;-73
2023/08/09 03:37:38;;;;;;;10.38;3.80;;;23.30;99.90;;;;;;5109044;27;20412;-72
2023/08/09 03:40:07;;;;;;;9.82;3.60;;;23.30;99.90;;;;;;5106853;28;20928;-72
2023/08/09 03:42:34;;;;;;;8.38;3.80;;;23.40;99.90;;;;;;5105896;28;20415;-72
2023/08/09 03:45:00;;;;;;;8.50;3.85;;;23.40;99.90;;;;;;5105677;28;20412;-74
2023/08/09 03:47:27;;;;;;;7.65;3.40;;;23.40;99.90;;;;;;5108831;28;20404;-74
2023/08/09 03:49:53;;;;;;;6.43;3.55;;;23.30;99.90;;;;;;5106120;27;20401;-74
2023/08/09 03:52:20;;;;;;;8.38;3.40;;;23.40;99.90;;;;;;5110306;27;20416;-74
2023/08/09 03:54:47;;;;;;;7.85;3.50;;;23.40;99.90;;;;;;5089840;28;20398;-74
2023/08/09 03:57:13;;;;;;;9.50;3.97;;;23.30;99.90;;;;;;5105478;28;20404;-73
2023/08/09 03:59:43;;;;;;;10.85;3.78;;;23.40;99.90;;;;;;5109345;28;20422;-73
2023/08/09 04:02:09;;;;;;;7.10;3.67;;;23.40;99.90;;;;;;5107976;27;20403;-73
2023/08/09 04:04:35;;;;;;;10.35;3.85;;;23.30;99.90;;;;;;5125053;27;20405;-73
2023/08/09 04:07:02;;;;;;;9.63;4.00;;;23.30;99.90;;;;;;5108175;27;21163;-73
2023/08/09 04:09:28;;;;;;;11.57;4.20;;;23.20;99.90;;;;;;5132328;27;20399;-73
2023/08/09 04:11:55;;;;;;;8.48;3.95;;;23.30;99.90;;;;;;5097071;28;20506;-73
2023/08/09 04:14:21;;;;;;;7.65;4.00;;;23.30;99.90;;;;;;5103585;28;20400;-71
2023/08/09 04:16:48;;;;;;;8.55;3.90;;;23.40;99.90;;;;;;5105145;28;20990;-72
2023/08/09 04:19:14;;;;;;;9.27;3.92;;;23.40;99.90;;;;;;5106196;28;20400;-72
2023/08/09 04:21:41;;;;;;;11.70;4.28;;;23.50;99.90;;;;;;5105236;27;20432;-72
2023/08/09 04:24:10;;;;;;;10.32;4.20;;;23.50;99.90;;;;;;5089717;28;20946;-72
2023/08/09 04:26:37;;;;;;;13.00;4.75;;;23.50;99.90;;;;;;5118090;27;20416;-71
2023/08/09 04:29:04;;;;;;;13.60;4.63;;;23.50;99.90;;;;;;5090414;28;20928;-70
2023/08/09 04:31:30;;;;;;;11.80;4.37;;;23.50;99.90;;;;;;5108137;27;20894;-70
2023/08/09 04:33:57;;;;;;;10.80;3.92;;;23.50;99.90;;;;;;5112361;28;20408;-70
2023/08/09 04:36:23;;;;;;;11.88;4.20;;;23.50;99.90;;;;;;5130812;27;20388;-70
2023/08/09 04:38:49;;;;;;;13.57;4.22;;;23.60;99.90;;;;;;5091207;28;20406;-70
2023/08/09 04:41:15;;;;;;;11.20;4.20;;;23.60;99.90;;;;;;5111767;27;20412;-70
2023/08/09 04:43:44;;;;;;;8.47;4.07;;;23.60;99.90;;;;;;5107786;27;21078;-70
2023/08/09 04:46:12;;;;;;;12.70;4.50;;;23.70;99.90;;;;;;5104653;28;20484;-73
2023/08/09 04:48:46;;;;;;;10.52;3.85;;;23.70;99.90;;;;;;5086822;28;20414;-73
2023/08/09 04:51:13;;;;;;;10.20;3.92;;;23.80;99.90;;;;;;5102260;28;20439;-73
2023/08/09 04:53:42;;;;;;;8.25;3.67;;;23.80;99.90;;;;;;5103534;27;20754;-74
2023/08/09 04:56:09;;;;;;;9.00;3.73;;;23.90;99.90;;;;;;5101857;28;20419;-73
2023/08/09 04:58:35;;;;;;;9.55;4.03;;;23.90;99.90;;;;;;5104019;27;20721;-74
2023/08/09 05:01:02;;;;;;;10.03;3.47;;;24.00;99.90;;;;;;5105179;27;20412;-74
2023/08/09 05:03:28;;;;;;;10.60;3.75;;;24.00;99.90;;;;;;5132423;27;20414;-74
2023/08/09 05:05:54;;;;;;;7.55;3.92;;;24.00;99.90;;;;;;5098491;28;20431;-74
2023/08/09 05:08:21;;;;;;;9.35;3.95;;;24.10;99.90;;;;;;5103045;27;20419;-74
2023/08/09 05:10:47;;;;;;;9.70;3.72;;;24.10;99.90;;;;;;5104234;28;20490;-74
2023/08/09 05:13:14;;;;;;;7.67;3.47;;;24.10;99.90;;;;;;5101690;28;20435;-74
2023/08/09 05:15:40;;;;;;;11.80;3.72;;;24.10;99.90;;;;;;5103675;27;20452;-74
2023/08/09 05:18:07;;;;;;;8.57;3.80;;;24.20;99.90;;;;;;5098241;28;20464;-74
2023/08/09 05:20:33;;;;;;;7.78;3.45;;;24.30;99.90;;;;;;5100803;28;21100;-74
2023/08/09 05:22:59;;;;;;;9.85;3.80;;;24.30;99.90;;;;;;5101374;27;20416;-73
2023/08/09 05:25:26;;;;;;;12.52;3.88;;;24.30;99.90;;;;;;5106518;27;20407;-74
2023/08/09 05:27:55;;;;;;;10.15;3.40;;;24.40;99.90;;;;;;5083942;28;20402;-74
2023/08/09 05:30:22;;;;;;;8.73;3.80;;;24.40;99.90;;;;;;5106543;27;20404;-74
2023/08/09 05:32:49;;;;;;;12.32;3.90;;;24.50;99.90;;;;;;5090093;27;20970;-74
2023/08/09 05:35:21;;;;;;;8.45;3.95;;;24.50;99.90;;;;;;5090652;27;20404;-73
2023/08/09 05:37:48;;;;;;;8.82;3.60;;;24.50;99.90;;;;;;5094828;27;21210;-73
2023/08/09 05:40:14;;;;;;;12.55;3.40;;;24.60;99.90;;;;;;5104094;27;20424;-73
2023/08/09 05:42:41;;;;;;;8.48;3.53;;;24.70;99.90;;;;;;5083770;27;21047;-73
2023/08/09 05:45:08;;;;;;;11.93;4.13;;;24.70;99.90;;;;;;5087637;27;20740;-72
2023/08/09 05:47:35;;;;;;;9.43;3.60;;;24.70;99.90;;;;;;5071173;28;20505;-72
2023/08/09 05:50:01;;;;;;;12.10;3.87;;;24.80;99.90;;;;;;5090734;27;20398;-72
2023/08/09 05:52:28;;;;;;;12.48;3.80;;;24.80;99.90;;;;;;5069378;28;20476;-72
2023/08/09 05:54:54;;;;;;;10.63;3.58;;;24.90;99.90;;;;;;5082919;28;20408;-72
2023/08/09 05:57:20;;;;;;;10.40;3.40;;;24.90;99.90;;;;;;5111269;27;20416;-70
2023/08/09 05:59:47;;;;;;;15.95;4.13;;;25.00;99.90;;;;;;5083680;28;20719;-72
2023/08/09 06:02:13;;;;;;;7.30;3.30;;;25.00;99.90;;;;;;5066323;28;20930;-72
2023/08/09 06:04:39;;;;;;;10.47;3.80;;;25.10;99.90;;;;;;5084245;28;20407;-72
2023/08/09 06:07:07;;;;;;;9.30;3.50;;;25.20;99.90;;;;;;5088203;27;20458;-72
2023/08/09 06:09:33;;;;;;;9.20;3.30;;;25.20;99.90;;;;;;5079973;28;20419;-71
2023/08/09 06:12:11;;;;;;;8.75;3.45;;;25.20;99.90;;;;;;5080581;28;20408;-71
2023/08/09 06:14:38;;;;;;;8.63;3.42;;;25.30;99.90;;;;;;5066725;28;20435;-72
2023/08/09 06:17:11;;;;;;;8.63;3.45;;;25.30;99.90;;;;;;5084207;28;20422;-72
2023/08/09 06:19:37;;;;;;;9.65;3.58;;;25.40;99.90;;;;;;5084026;28;21209;-73
2023/08/09 06:22:03;;;;;;;8.30;3.58;;;25.40;99.90;;;;;;5077713;28;20422;-73
2023/08/09 06:24:30;;;;;;;10.27;3.30;;;25.40;99.90;;;;;;5090443;28;20495;-73
2023/08/09 06:26:57;;;;;;;10.68;3.50;;;25.50;99.90;;;;;;5080373;28;20474;-73
2023/08/09 06:29:23;;;;;;;9.67;3.30;;;25.60;99.90;;;;;;5079181;28;20465;-73
2023/08/09 06:31:50;;;;;;;8.05;3.40;;;25.60;99.90;;;;;;5078026;28;20404;-73
2023/08/09 06:34:16;;;;;;;7.35;3.35;;;25.70;99.90;;;;;;5076135;28;20415;-74
2023/08/09 06:36:43;;;;;;;12.52;3.75;;;25.70;99.90;;;;;;5087932;28;20409;-74
2023/08/09 06:39:09;;;;;;;12.40;3.83;;;25.70;99.90;;;;;;5116737;27;20481;-74
2023/08/09 06:41:35;;;;;;;7.57;3.50;;;25.90;99.90;;;;;;5072213;28;20403;-74
2023/08/09 06:44:01;;;;;;;10.93;3.38;;;25.90;99.90;;;;;;5089732;28;20465;-74
2023/08/09 06:46:28;;;;;;;10.65;3.50;;;26.00;99.90;;;;;;5096655;27;20818;-72
2023/08/09 06:49:00;;;;;;;8.55;3.30;;;26.00;99.90;;;;;;5072541;28;20396;-73
2023/08/09 06:51:27;;;;;;;9.50;3.57;;;26.00;99.90;;;;;;5092811;28;20412;-73
2023/08/09 06:53:53;;;;;;;8.03;3.10;;;26.10;99.90;;;;;;5109694;27;20530;-73
2023/08/09 06:56:19;;;;;;;8.50;3.40;;;26.20;99.90;;;;;;5075198;28;20741;-73
2023/08/09 06:58:45;;;;;;;8.98;3.53;;;26.20;99.90;;;;;;5094284;28;20447;-74
2023/08/09 07:01:12;;;;;;;8.05;3.28;;;26.30;99.90;;;;;;5092678;28;20416;-74
2023/08/09 07:03:39;;;;;;;8.25;3.50;;;26.30;99.90;;;;;;5094593;28;20411;-72
2023/08/09 07:06:05;;;;;;;8.98;3.10;;;26.40;99.90;;;;;;5081158;27;21120;-72
2023/08/09 07:08:31;;;;;;;8.13;3.30;;;26.40;99.90;;;;;;5087022;27;20468;-70
2023/08/09 07:10:58;;;;;;;9.75;3.50;;;26.50;99.90;;;;;;5099977;28;20412;-70
2023/08/09 07:13:25;;;;;;;13.27;3.45;;;26.60;99.90;;;;;;5097762;27;20402;-70
2023/08/09 07:15:52;;;;;;;9.93;3.42;;;26.60;99.90;;;;;;5074292;28;20469;-70
2023/08/09 07:18:18;;;;;;;6.65;3.00;;;26.70;99.90;;;;;;5098415;27;20419;-70
2023/08/09 07:20:44;;;;;;;9.10;3.40;;;26.70;99.90;;;;;;5095829;27;21104;-72
2023/08/09 07:23:11;;;;;;;9.15;3.05;;;26.80;99.90;;;;;;5097037;28;20415;-73
2023/08/09 07:25:37;;;;;;;8.23;3.10;;;26.80;99.90;;;;;;5096153;27;20404;-73
2023/08/09 07:28:05;;;;;;;7.80;3.15;;;26.90;99.90;;;;;;5100457;27;20459;-73
2023/08/09 07:30:31;;;;;;;8.68;3.20;;;26.90;99.90;;;;;;5092306;27;20424;-72
2023/08/09 07:32:57;;;;;;;12.15;3.28;;;27.00;99.90;;;;;;5087477;27;20851;-72
2023/08/09 07:35:24;;;;;;;7.93;3.17;;;27.10;99.90;;;;;;5130431;27;20417;-72
2023/08/09 07:37:50;;;;;;;10.30;3.30;;;27.20;99.90;;;;;;5102399;27;20902;-72
2023/08/09 07:40:16;;;;;;;8.27;2.90;;;27.20;99.90;;;;;;5124650;27;20490;-73
2023/08/09 07:42:43;;;;;;;9.98;3.60;;;27.30;99.90;;;;;;5101011;27;20411;-73
2023/08/09 07:45:10;;;;;;;11.88;3.30;;;27.40;99.90;;;;;;5100129;28;20481;-72
2023/08/09 07:47:37;;;;;;;8.02;3.10;;;27.40;99.90;;;;;;5083329;27;20421;-73
2023/08/09 07:50:05;;;;;;;10.50;3.22;;;27.50;99.90;;;;;;5085698;28;20430;-72
2023/08/09 07:52:32;;;;;;;9.15;3.25;;;27.60;99.90;;;;;;5080471;28;20407;-72
2023/08/09 07:54:59;;;;;;;9.88;3.30;;;27.60;99.90;;;;;;5097565;28;20436;-72
2023/08/09 07:57:25;;;;;;;6.75;3.38;;;27.70;99.90;;;;;;5100955;27;20406;-72
2023/08/09 07:59:51;;;;;;;13.32;3.47;;;27.80;99.90;;;;;;5092441;27;20972;-72
2023/08/09 08:02:18;;;;;;;8.90;3.28;;;27.90;99.90;;;;;;5097727;28;20413;-72
2023/08/09 08:04:44;;;;;;;9.30;3.13;;;28.00;99.90;;;;;;5104264;27;20411;-72
2023/08/09 08:07:10;;;;;;;9.43;3.30;;;28.10;99.90;;;;;;5097715;28;20992;-72
2023/08/09 08:09:42;;;;;;;8.75;3.47;;;28.10;99.90;;;;;;5082104;28;20508;-72
2023/08/09 08:12:11;;;;;;;9.93;3.20;;;28.20;99.90;;;;;;5109039;27;20410;-72
2023/08/09 08:14:38;;;;;;;11.52;3.30;;;28.30;99.90;;;;;;5096431;27;21091;-73
2023/08/09 08:17:04;;;;;;;7.60;3.03;;;28.40;99.90;;;;;;5093408;28;20408;-72
2023/08/09 08:19:30;;;;;;;9.95;3.15;;;28.40;99.90;;;;;;5099689;28;20412;-72
2023/08/09 08:21:57;;;;;;;7.57;3.07;;;28.60;99.90;;;;;;5098075;27;20454;-72
2023/08/09 08:24:24;;;;;;;8.27;3.00;;;28.70;99.90;;;;;;5100432;27;20485;-72
2023/08/09 08:26:53;;;;;;;8.63;3.05;;;28.80;99.90;;;;;;5098678;27;20520;-73
2023/08/09 08:29:19;;;;;;;9.87;2.90;;;28.90;99.90;;;;;;5100606;27;20412;-73
2023/08/09 08:31:46;;;;;;;9.02;3.10;;;29.00;99.90;;;;;;5117189;27;20420;-72
2023/08/09 08:34:13;;;;;;;13.80;3.00;;;29.10;99.90;;;;;;5094398;27;20497;-72
2023/08/09 08:36:40;;;;;;;11.32;2.78;;;29.10;99.90;;;;;;5098217;27;20453;-72
2023/08/09 08:39:14;;;;;;;9.18;2.90;;;29.30;99.90;;;;;;5131581;27;20388;-73
2023/08/09 08:41:41;;;;;;;6.75;2.80;;;29.30;99.90;;;;;;5126137;27;21143;-73
2023/08/09 08:44:11;;;;;;;7.38;2.90;;;29.40;99.90;;;;;;5084687;28;21216;-73
2023/08/09 08:46:38;;;;;;;7.45;2.90;;;29.60;99.90;;;;;;5090631;28;20508;-72
2023/08/09 08:49:05;;;;;;;9.68;2.70;;;29.70;99.90;;;;;;5129201;27;20454;-73
2023/08/09 08:51:36;;;;;;;7.45;2.72;;;29.80;99.90;;;;;;5099540;27;20677;-72
2023/08/09 08:54:03;;;;;;;8.93;2.95;;;29.80;99.90;;;;;;5111673;27;20416;-72
2023/08/09 08:56:30;;;;;;;9.80;2.90;;;29.80;99.90;;;;;;5089609;27;20466;-73
2023/08/09 08:59:00;;;;;;;10.87;2.93;;;29.90;99.90;;;;;;5087685;27;20412;-72
2023/08/09 09:01:26;;;;;;;8.63;2.77;;;29.90;99.90;;;;;;5086413;27;20539;-73
2023/08/09 09:03:52;;;;;;;7.18;2.72;;;30.00;99.90;;;;;;5087018;27;20405;-72
2023/08/09 09:06:19;;;;;;;12.35;2.90;;;30.10;99.90;;;;;;5087933;27;20508;-72
2023/08/09 09:08:46;;;;;;;10.30;3.10;;;30.10;99.90;;;;;;5086673;27;20467;-73
2023/08/09 09:11:18;;;;;;;11.55;2.90;;;30.20;99.90;;;;;;5077408;28;20875;-72
2023/08/09 09:13:48;;;;;;;8.63;2.80;;;30.10;99.90;;;;;;5118101;27;21063;-73
2023/08/09 09:16:15;;;;;;;8.38;2.90;;;30.10;99.90;;;;;;5089050;27;20792;-72
2023/08/09 09:18:45;;;;;;;6.95;2.53;;;30.20;99.90;;;;;;5085797;27;20511;-73
2023/08/09 09:21:11;;;;;;;7.38;2.50;;;30.40;99.90;;;;;;5099891;27;20557;-72
2023/08/09 09:23:38;;;;;;;8.43;2.80;;;30.60;99.90;;;;;;5083353;27;20487;-72
2023/08/09 09:26:11;;;;;;;7.57;2.70;;;30.70;99.90;;;;;;5067929;28;20427;-72
2023/08/09 09:28:44;;;;;;;9.73;2.80;;;30.90;99.90;;;;;;5084945;28;20419;-72
2023/08/09 09:31:13;;;;;;;9.37;2.90;;;31.00;99.90;;;;;;5071465;28;20431;-72
2023/08/09 09:33:45;;;;;;;8.98;2.75;;;31.20;99.90;;;;;;5084967;27;20917;-72
2023/08/09 09:36:13;;;;;;;10.50;2.95;;;31.20;99.90;;;;;;5090599;28;20402;-73
2023/08/09 09:38:40;;;;;;;7.90;2.95;;;31.30;99.90;;;;;;5100070;27;20473;-73
2023/08/09 09:41:09;;;;;;;9.55;2.80;;;31.50;99.90;;;;;;5089469;28;20922;-73
2023/08/09 09:43:46;;;;;;;11.70;3.15;;;31.50;99.90;;;;;;5084514;27;20423;-72
2023/08/09 09:46:25;;;;;;;10.20;3.30;;;31.70;99.90;;;;;;5086237;28;20417;-72
2023/08/09 09:49:04;;;;;;;7.07;2.70;;;31.80;99.90;;;;;;5074605;28;21267;-72
2023/08/09 09:51:30;;;;;;;8.77;3.00;;;31.80;99.90;;;;;;5089522;27;20459;-72
2023/08/09 09:53:57;;;;;;;7.93;2.80;;;31.70;99.90;;;;;;5083423;27;20472;-72
2023/08/09 09:56:23;;;;;;;8.88;2.67;;;31.80;99.90;;;;;;5085549;28;20408;-72
2023/08/09 09:58:52;;;;;;;8.30;2.75;;;31.90;99.90;;;;;;5084832;28;21362;-72
2023/08/09 10:01:27;;;;;;;11.80;3.10;;;31.80;99.90;;;;;;5086359;28;20405;-72
2023/08/09 10:04:07;;;;;;;12.82;3.08;;;31.70;99.90;;;;;;5089187;28;20415;-72
2023/08/09 10:06:39;;;;;;;9.60;2.97;;;31.60;99.90;;;;;;5101376;28;20452;-72
2023/08/09 10:09:08;;;;;;;11.47;2.77;;;31.70;99.90;;;;;;5085766;28;20539;-72
2023/08/09 10:11:36;;;;;;;7.43;2.55;;;31.80;99.90;;;;;;5069804;28;20396;-72
2023/08/09 10:14:07;;;;;;;12.73;2.73;;;31.80;99.90;;;;;;5081885;28;20877;-72
2023/08/09 10:16:36;;;;;;;7.80;2.70;;;31.80;99.90;;;;;;5090250;28;20409;-73
2023/08/09 10:19:15;;;;;;;7.00;2.30;;;31.90;99.90;;;;;;5087133;28;20410;-72
2023/08/09 10:21:41;;;;;;;7.57;2.72;;;31.90;99.90;;;;;;5118481;27;20410;-72
2023/08/09 10:24:12;;;;;;;8.57;2.63;;;31.90;99.90;;;;;;5087089;28;20443;-73
2023/08/09 10:26:45;;;;;;;7.25;2.50;;;31.80;99.90;;;;;;5069858;28;20541;-72
2023/08/09 10:29:22;;;;;;;7.78;2.83;;;31.70;99.90;;;;;;5084777;28;20491;-72
2023/08/09 10:31:57;;;;;;;9.45;2.85;;;31.70;99.90;;;;;;5085498;28;20408;-72
2023/08/09 10:34:41;;;;;;;8.68;2.70;;;31.40;99.90;;;;;;5085807;28;20408;-72
2023/08/09 10:37:12;;;;;;;11.60;3.03;;;31.20;99.90;;;;;;5088364;28;20410;-73
2023/08/09 10:39:39;;;;;;;9.93;2.30;;;31.20;99.90;;;;;;5084266;28;20489;-72
2023/08/09 10:42:09;;;;;;;9.10;2.50;;;31.20;99.90;;;;;;5096417;27;20413;-73
2023/08/09 10:44:52;;;;;;;6.68;2.67;;;31.00;99.90;;;;;;5086879;27;20487;-72
2023/08/09 10:47:25;;;;;;;9.68;2.80;;;30.90;99.90;;;;;;5095972;27;20757;-72
2023/08/09 10:49:51;;;;;;;12.90;3.13;;;30.90;99.90;;;;;;5086138;27;20886;-72
2023/08/09 10:52:29;;;;;;;14.88;3.20;;;31.00;99.90;;;;;;5093211;27;20907;-72
2023/08/09 10:55:26;;;;;;;7.30;2.60;;;30.90;99.90;;;;;;5093752;27;20416;-72
2023/08/09 10:57:54;;;;;;;10.05;2.65;;;30.90;99.90;;;;;;5072480;27;20417;-72
2023/08/09 11:00:23;;;;;;;7.45;2.70;;;30.90;99.90;;;;;;5087962;27;20412;-72
2023/08/09 11:02:56;;;;;;;9.07;2.53;;;30.90;99.90;;;;;;5098044;27;20409;-72
2023/08/09 11:05:27;;;;;;;8.32;2.70;;;30.90;99.90;;;;;;5103086;28;20403;-72
2023/08/09 11:07:59;;;;;;;7.60;2.60;;;30.90;99.90;;;;;;5105135;27;20456;-73
2023/08/09 11:10:40;;;;;;;10.20;2.77;;;31.00;99.90;;;;;;5074238;27;20419;-72
2023/08/09 11:13:18;;;;;;;9.50;2.63;;;31.00;99.90;;;;;;5073835;28;20410;-72
2023/08/09 11:15:50;;;;;;;10.65;3.03;;;31.00;99.90;;;;;;5092734;27;20416;-72
2023/08/09 11:18:17;;;;;;;8.27;2.60;;;31.10;99.90;;;;;;5120671;27;20401;-72
2023/08/09 11:20:44;;;;;;;8.88;2.63;;;31.10;99.90;;;;;;5072900;28;20406;-72
2023/08/09 11:23:11;;;;;;;10.43;2.97;;;31.10;99.90;;;;;;5077313;28;21114;-73
2023/08/09 11:25:38;;;;;;;5.82;2.55;;;31.10;99.90;;;;;;5100471;27;20412;-73
2023/08/09 11:28:12;;;;;;;7.25;2.70;;;31.00;99.90;;;;;;5088816;27;20416;-73
2023/08/09 11:30:42;;;;;;;10.20;2.58;;;31.00;99.90;;;;;;5087550;27;20445;-72
2023/08/09 11:33:11;;;;;;;9.87;2.70;;;30.90;99.90;;;;;;5088458;27;20435;-72
2023/08/09 11:35:45;;;;;;;7.07;2.63;;;30.90;99.90;;;;;;5087791;28;20927;-72
2023/08/09 11:38:15;;;;;;;8.75;2.55;;;30.80;99.90;;;;;;5073009;28;20500;-72
2023/08/09 11:40:49;;;;;;;10.25;2.90;;;30.80;99.90;;;;;;5076037;28;20726;-72
2023/08/09 11:43:20;;;;;;;8.80;2.80;;;30.70;99.90;;;;;;5117745;27;20409;-73
2023/08/09 11:45:54;;;;;;;8.95;2.70;;;30.70;99.90;;;;;;5088794;27;20418;-72
2023/08/09 11:48:38;;;;;;;8.18;2.80;;;30.70;99.90;;;;;;5085506;27;20422;-72
2023/08/09 11:51:16;;;;;;;8.45;3.03;;;30.70;99.90;;;;;;5089667;28;20753;-73
2023/08/09 11:53:44;;;;;;;9.05;2.92;;;30.60;99.90;;;;;;5089144;27;20396;-72
2023/08/09 11:56:21;;;;;;;7.65;2.65;;;30.60;99.90;;;;;;5090952;28;20413;-72
2023/08/09 11:58:53;;;;;;;12.80;2.95;;;30.50;99.90;;;;;;5086453;27;20404;-72
2023/08/09 12:01:29;;;;;;;7.50;2.70;;;30.50;99.90;;;;;;5076321;28;20415;-73
2023/08/09 12:03:59;;;;;;;7.95;2.63;;;30.40;99.90;;;;;;5090875;27;20410;-73
2023/08/09 12:06:45;;;;;;;10.90;3.03;;;30.30;99.90;;;;;;5094185;28;20408;-72
2023/08/09 12:09:36;;;;;;;10.75;3.10;;;30.30;99.90;;;;;;5090096;27;20402;-73
2023/08/09 12:12:35;;;;;;;10.97;3.00;;;30.20;99.90;;;;;;5074045;27;20398;-72
2023/08/09 12:15:01;;;;;;;13.35;3.28;;;30.20;99.90;;;;;;5078556;28;20420;-72
2023/08/09 12:17:29;;;;;;;12.45;3.00;;;30.20;99.90;;;;;;5124064;27;20409;-73
2023/08/09 12:20:04;;;;;;;12.10;3.20;;;30.20;99.90;;;;;;5090251;27;20523;-73
2023/08/09 12:22:31;;;;;;;9.35;2.72;;;30.20;99.90;;;;;;5103467;27;20436;-72
2023/08/09 12:24:59;;;;;;;8.40;2.55;;;30.20;99.90;;;;;;5105777;27;20913;-72
2023/08/09 12:27:26;;;;;;;15.55;2.80;;;30.30;99.90;;;;;;5086457;27;20424;-72
2023/08/09 12:29:53;;;;;;;11.55;3.10;;;30.30;99.90;;;;;;5089713;27;20417;-72
2023/08/09 12:32:20;;;;;;;10.57;2.92;;;30.30;99.90;;;;;;5089098;27;20414;-72
2023/08/09 12:34:50;;;;;;;10.77;3.08;;;30.30;99.90;;;;;;5069353;28;20995;-72
2023/08/09 12:37:17;;;;;;;9.77;2.78;;;30.30;99.90;;;;;;5083583;28;20831;-72
2023/08/09 12:39:43;;;;;;;8.33;2.70;;;30.30;99.90;;;;;;5090046;27;20412;-72
2023/08/09 12:42:10;;;;;;;11.48;2.90;;;30.40;99.90;;;;;;5093088;27;22449;-72
2023/08/09 12:44:38;;;;;;;8.82;2.70;;;30.40;99.90;;;;;;5099899;27;20433;-72
2023/08/09 12:47:06;;;;;;;10.70;3.05;;;30.50;99.90;;;;;;5066539;27;20483;-72
2023/08/09 12:49:33;;;;;;;10.10;2.92;;;30.50;99.90;;;;;;5100880;27;20414;-72
2023/08/09 12:51:59;;;;;;;7.57;2.88;;;30.60;99.90;;;;;;5113873;27;20408;-72